createdAt,value
2016-12-06T00:00:00.817Z,923.59
2016-12-06T00:00:15.340Z,923.57
2016-12-06T00:00:29.912Z,923.61
2016-12-06T00:00:44.568Z,923.61
2016-12-06T00:00:59.073Z,923.61
2016-12-06T00:01:13.679Z,923.61
2016-12-06T00:01:28.325Z,923.56
2016-12-06T00:01:42.826Z,923.57
2016-12-06T00:01:57.380Z,923.62
2016-12-06T00:02:11.819Z,923.6
2016-12-06T00:02:26.221Z,923.6
2016-12-06T00:02:40.884Z,923.63
2016-12-06T00:02:55.437Z,923.61
2016-12-06T00:03:10.094Z,923.61
2016-12-06T00:03:24.652Z,923.64
2016-12-06T00:03:39.091Z,923.66
2016-12-06T00:03:53.707Z,923.65
2016-12-06T00:04:08.407Z,923.69
2016-12-06T00:04:22.867Z,923.66
2016-12-06T00:04:37.434Z,923.66
2016-12-06T00:04:52.086Z,923.66
2016-12-06T00:05:06.633Z,923.68
2016-12-06T00:05:21.335Z,923.7
2016-12-06T00:05:35.958Z,923.67
2016-12-06T00:05:50.504Z,923.7
2016-12-06T00:06:05.006Z,923.68
2016-12-06T00:06:19.554Z,923.69
2016-12-06T00:06:34.098Z,923.68
2016-12-06T00:06:48.713Z,923.7
2016-12-06T00:07:03.324Z,923.71
2016-12-06T00:07:17.798Z,923.72
2016-12-06T00:07:32.464Z,923.7
2016-12-06T00:07:47.054Z,923.69
2016-12-06T00:08:01.731Z,923.7
2016-12-06T00:08:16.283Z,923.69
2016-12-06T00:08:30.867Z,923.72
2016-12-06T00:08:45.429Z,923.74
2016-12-06T00:08:59.992Z,923.68
2016-12-06T00:09:14.631Z,923.7
2016-12-06T00:09:29.180Z,923.73
2016-12-06T00:09:43.872Z,923.7
2016-12-06T00:09:58.452Z,923.74
2016-12-06T00:10:13.041Z,923.77
2016-12-06T00:10:27.640Z,923.73
2016-12-06T00:10:42.212Z,923.73
2016-12-06T00:10:56.861Z,923.73
2016-12-06T00:11:11.463Z,923.76
2016-12-06T00:11:26.065Z,923.75
2016-12-06T00:11:40.716Z,923.74
2016-12-06T00:11:55.269Z,923.7
2016-12-06T00:12:09.827Z,923.75
2016-12-06T00:12:24.392Z,923.73
2016-12-06T00:12:38.891Z,923.75
2016-12-06T00:12:53.567Z,923.75
2016-12-06T00:13:07.977Z,923.77
2016-12-06T00:13:22.600Z,923.76
2016-12-06T00:13:37.148Z,923.75
2016-12-06T00:13:52.014Z,923.8
2016-12-06T00:14:06.643Z,923.78
2016-12-06T00:14:21.840Z,923.78
2016-12-06T00:14:36.566Z,923.84
2016-12-06T00:14:51.291Z,923.85
2016-12-06T00:15:05.927Z,923.84
2016-12-06T00:15:20.508Z,923.85
2016-12-06T00:15:35.171Z,923.84
2016-12-06T00:15:49.823Z,923.87
2016-12-06T00:16:04.265Z,923.84
2016-12-06T00:16:18.844Z,923.85
2016-12-06T00:16:33.259Z,923.86
2016-12-06T00:16:47.762Z,923.85
2016-12-06T00:17:02.146Z,923.88
2016-12-06T00:17:16.668Z,923.85
2016-12-06T00:17:31.243Z,923.88
2016-12-06T00:17:45.814Z,923.87
2016-12-06T00:18:00.407Z,923.87
2016-12-06T00:18:15.118Z,923.84
2016-12-06T00:18:29.524Z,923.84
2016-12-06T00:18:43.987Z,923.84
2016-12-06T00:18:58.594Z,923.83
2016-12-06T00:19:13.495Z,923.86
2016-12-06T00:19:28.156Z,923.91
2016-12-06T00:19:42.847Z,923.87
2016-12-06T00:19:57.623Z,923.88
2016-12-06T00:20:12.213Z,923.93
2016-12-06T00:20:26.816Z,923.88
2016-12-06T00:20:41.491Z,923.9
2016-12-06T00:20:55.897Z,923.87
2016-12-06T00:21:10.364Z,923.94
2016-12-06T00:21:24.884Z,923.9
2016-12-06T00:21:39.560Z,923.97
2016-12-06T00:21:54.201Z,923.88
2016-12-06T00:22:08.750Z,923.92
2016-12-06T00:22:23.207Z,923.89
2016-12-06T00:22:37.759Z,923.89
2016-12-06T00:22:52.290Z,923.88
2016-12-06T00:23:06.757Z,923.92
2016-12-06T00:23:21.297Z,923.9
2016-12-06T00:23:35.670Z,923.92
2016-12-06T00:23:50.157Z,923.95
2016-12-06T00:24:04.749Z,923.94
2016-12-06T00:24:19.345Z,923.89
2016-12-06T00:24:33.971Z,923.96
2016-12-06T00:24:48.651Z,923.92
2016-12-06T00:25:03.318Z,923.9
2016-12-06T00:25:17.887Z,923.92
2016-12-06T00:25:32.497Z,923.93
2016-12-06T00:25:47.028Z,923.94
2016-12-06T00:26:01.647Z,923.92
2016-12-06T00:26:16.162Z,923.94
2016-12-06T00:26:30.760Z,923.96
2016-12-06T00:26:45.305Z,923.92
2016-12-06T00:26:59.719Z,923.95
2016-12-06T00:27:14.453Z,923.93
2016-12-06T00:27:28.965Z,923.96
2016-12-06T00:27:43.733Z,923.95
2016-12-06T00:27:58.377Z,923.93
2016-12-06T00:28:12.899Z,923.94
2016-12-06T00:28:27.382Z,923.95
2016-12-06T00:28:41.926Z,923.97
2016-12-06T00:28:56.356Z,923.95
2016-12-06T00:29:10.943Z,923.96
2016-12-06T00:29:26.059Z,923.97
2016-12-06T00:29:40.640Z,923.97
2016-12-06T00:29:55.349Z,923.94
2016-12-06T00:30:10.118Z,923.94
2016-12-06T00:30:24.585Z,923.96
2016-12-06T00:30:39.234Z,923.96
2016-12-06T00:30:53.853Z,923.98
2016-12-06T00:31:08.314Z,923.96
2016-12-06T00:31:22.759Z,923.96
2016-12-06T00:31:37.502Z,923.95
2016-12-06T00:31:52.070Z,923.99
2016-12-06T00:32:06.617Z,923.98
2016-12-06T00:32:21.111Z,923.95
2016-12-06T00:32:35.596Z,923.93
2016-12-06T00:32:50.148Z,923.98
2016-12-06T00:33:04.551Z,923.93
2016-12-06T00:33:18.965Z,923.98
2016-12-06T00:33:33.455Z,923.93
2016-12-06T00:33:47.900Z,924
2016-12-06T00:34:02.482Z,923.94
2016-12-06T00:34:17.105Z,923.98
2016-12-06T00:34:31.570Z,923.96
2016-12-06T00:34:46.185Z,923.95
2016-12-06T00:35:00.748Z,923.94
2016-12-06T00:35:15.329Z,923.93
2016-12-06T00:35:29.711Z,923.93
2016-12-06T00:35:44.107Z,923.96
2016-12-06T00:35:58.545Z,923.96
2016-12-06T00:36:13.055Z,923.93
2016-12-06T00:36:27.455Z,923.89
2016-12-06T00:36:41.900Z,923.9
2016-12-06T00:36:56.336Z,923.91
2016-12-06T00:37:10.730Z,923.93
2016-12-06T00:37:25.100Z,923.92
2016-12-06T00:37:39.492Z,923.92
2016-12-06T00:37:53.855Z,923.98
2016-12-06T00:38:08.235Z,923.97
2016-12-06T00:38:22.691Z,923.96
2016-12-06T00:38:37.099Z,923.95
2016-12-06T00:38:51.627Z,923.97
2016-12-06T00:39:06.058Z,923.95
2016-12-06T00:39:20.441Z,923.97
2016-12-06T00:39:34.825Z,923.97
2016-12-06T00:39:49.188Z,924
2016-12-06T00:40:03.624Z,924
2016-12-06T00:40:18.045Z,924.02
2016-12-06T00:40:32.464Z,923.97
2016-12-06T00:40:46.911Z,923.96
2016-12-06T00:41:01.321Z,923.95
2016-12-06T00:41:15.740Z,923.98
2016-12-06T00:41:30.088Z,923.96
2016-12-06T00:41:44.525Z,923.97
2016-12-06T00:41:58.967Z,923.98
2016-12-06T00:42:13.294Z,924.03
2016-12-06T00:42:27.716Z,924.03
2016-12-06T00:42:42.104Z,924.03
2016-12-06T00:42:56.514Z,924.06
2016-12-06T00:43:10.881Z,924.09
2016-12-06T00:43:25.279Z,924.08
2016-12-06T00:43:39.603Z,924.05
2016-12-06T00:43:53.980Z,924.09
2016-12-06T00:44:08.403Z,924.11
2016-12-06T00:44:22.795Z,924.11
2016-12-06T00:44:37.544Z,924.08
2016-12-06T00:44:51.995Z,924.11
2016-12-06T00:45:06.440Z,924.07
2016-12-06T00:45:20.858Z,924.09
2016-12-06T00:45:35.299Z,924.11
2016-12-06T00:45:49.691Z,924.04
2016-12-06T00:46:04.138Z,924.12
2016-12-06T00:46:18.630Z,924.09
2016-12-06T00:46:33.043Z,924.14
2016-12-06T00:46:47.430Z,924.09
2016-12-06T00:47:01.921Z,924.11
2016-12-06T00:47:16.323Z,924.13
2016-12-06T00:47:30.801Z,924.08
2016-12-06T00:47:45.158Z,924.1
2016-12-06T00:47:59.517Z,924.1
2016-12-06T00:48:13.932Z,924.07
2016-12-06T00:48:28.364Z,924.09
2016-12-06T00:48:42.782Z,924.09
2016-12-06T00:48:57.205Z,924.12
2016-12-06T00:49:11.623Z,924.11
2016-12-06T00:49:25.970Z,924.15
2016-12-06T00:49:40.476Z,924.15
2016-12-06T00:49:54.851Z,924.14
2016-12-06T00:50:09.250Z,924.14
2016-12-06T00:50:23.631Z,924.12
2016-12-06T00:50:38.039Z,924.12
2016-12-06T00:50:52.442Z,924.18
2016-12-06T00:51:06.822Z,924.13
2016-12-06T00:51:21.208Z,924.22
2016-12-06T00:51:35.527Z,924.13
2016-12-06T00:51:49.920Z,924.15
2016-12-06T00:52:04.370Z,924.17
2016-12-06T00:52:18.782Z,924.14
2016-12-06T00:52:33.206Z,924.21
2016-12-06T00:52:47.566Z,924.17
2016-12-06T00:53:01.972Z,924.15
2016-12-06T00:53:16.376Z,924.11
2016-12-06T00:53:30.762Z,924.1
2016-12-06T00:53:45.221Z,924.1
2016-12-06T00:53:59.671Z,924.14
2016-12-06T00:54:14.039Z,924.12
2016-12-06T00:54:28.528Z,924.16
2016-12-06T00:54:43.030Z,924.15
2016-12-06T00:54:57.373Z,924.19
2016-12-06T00:55:11.781Z,924.16
2016-12-06T00:55:26.153Z,924.16
2016-12-06T00:55:40.464Z,924.14
2016-12-06T00:55:54.818Z,924.16
2016-12-06T00:56:09.213Z,924.18
2016-12-06T00:56:23.650Z,924.18
2016-12-06T00:56:38.130Z,924.16
2016-12-06T00:56:52.679Z,924.18
2016-12-06T00:57:07.156Z,924.23
2016-12-06T00:57:21.618Z,924.14
2016-12-06T00:57:35.989Z,924.15
2016-12-06T00:57:50.412Z,924.18
2016-12-06T00:58:04.840Z,924.13
2016-12-06T00:58:19.189Z,924.19
2016-12-06T00:58:33.519Z,924.21
2016-12-06T00:58:48.011Z,924.23
2016-12-06T00:59:02.364Z,924.19
2016-12-06T00:59:16.814Z,924.21
2016-12-06T00:59:31.205Z,924.18
2016-12-06T00:59:46.036Z,924.22
2016-12-06T01:00:00.453Z,924.17
2016-12-06T01:00:14.878Z,924.17
2016-12-06T01:00:29.300Z,924.21
2016-12-06T01:00:43.717Z,924.18
2016-12-06T01:00:58.157Z,924.19
2016-12-06T01:01:12.605Z,924.24
2016-12-06T01:01:27.092Z,924.21
2016-12-06T01:01:41.537Z,924.24
2016-12-06T01:01:55.979Z,924.21
2016-12-06T01:02:10.315Z,924.2
2016-12-06T01:02:24.776Z,924.18
2016-12-06T01:02:39.187Z,924.23
2016-12-06T01:02:53.593Z,924.21
2016-12-06T01:03:07.967Z,924.16
2016-12-06T01:03:22.417Z,924.19
2016-12-06T01:03:36.847Z,924.2
2016-12-06T01:03:51.299Z,924.2
2016-12-06T01:04:05.706Z,924.27
2016-12-06T01:04:20.067Z,924.16
2016-12-06T01:04:34.468Z,924.16
2016-12-06T01:04:48.952Z,924.19
2016-12-06T01:05:03.387Z,924.15
2016-12-06T01:05:17.744Z,924.14
2016-12-06T01:05:32.140Z,924.17
2016-12-06T01:05:46.574Z,924.17
2016-12-06T01:06:00.980Z,924.14
2016-12-06T01:06:15.408Z,924.14
2016-12-06T01:06:29.811Z,924.15
2016-12-06T01:06:44.211Z,924.17
2016-12-06T01:06:58.539Z,924.2
2016-12-06T01:07:12.997Z,924.18
2016-12-06T01:07:27.383Z,924.16
2016-12-06T01:07:41.794Z,924.17
2016-12-06T01:07:56.134Z,924.12
2016-12-06T01:08:10.537Z,924.13
2016-12-06T01:08:24.984Z,924.14
2016-12-06T01:08:39.430Z,924.17
2016-12-06T01:08:53.921Z,924.15
2016-12-06T01:09:08.311Z,924.14
2016-12-06T01:09:22.788Z,924.13
2016-12-06T01:09:37.213Z,924.11
2016-12-06T01:09:51.590Z,924.16
2016-12-06T01:10:06.004Z,924.13
2016-12-06T01:10:20.398Z,924.13
2016-12-06T01:10:34.767Z,924.12
2016-12-06T01:10:49.151Z,924.15
2016-12-06T01:11:03.499Z,924.12
2016-12-06T01:11:17.857Z,924.11
2016-12-06T01:11:32.299Z,924.14
2016-12-06T01:11:46.715Z,924.1
2016-12-06T01:12:01.173Z,924.19
2016-12-06T01:12:15.495Z,924.18
2016-12-06T01:12:29.893Z,924.2
2016-12-06T01:12:44.377Z,924.18
2016-12-06T01:12:58.793Z,924.19
2016-12-06T01:13:13.138Z,924.2
2016-12-06T01:13:27.581Z,924.19
2016-12-06T01:13:42.033Z,924.21
2016-12-06T01:13:56.493Z,924.21
2016-12-06T01:14:10.926Z,924.2
2016-12-06T01:14:25.338Z,924.22
2016-12-06T01:14:39.794Z,924.2
2016-12-06T01:14:54.409Z,924.22
2016-12-06T01:15:08.854Z,924.27
2016-12-06T01:15:23.235Z,924.28
2016-12-06T01:15:37.665Z,924.32
2016-12-06T01:15:52.040Z,924.31
2016-12-06T01:16:06.423Z,924.28
2016-12-06T01:16:20.790Z,924.33
2016-12-06T01:16:35.188Z,924.39
2016-12-06T01:16:49.554Z,924.37
2016-12-06T01:17:03.918Z,924.36
2016-12-06T01:17:18.300Z,924.37
2016-12-06T01:17:32.702Z,924.39
2016-12-06T01:17:47.106Z,924.39
2016-12-06T01:18:01.446Z,924.39
2016-12-06T01:18:15.834Z,924.38
2016-12-06T01:18:30.155Z,924.39
2016-12-06T01:18:44.554Z,924.41
2016-12-06T01:18:58.950Z,924.36
2016-12-06T01:19:13.304Z,924.43
2016-12-06T01:19:27.796Z,924.4
2016-12-06T01:19:42.174Z,924.43
2016-12-06T01:19:56.515Z,924.39
2016-12-06T01:20:10.908Z,924.37
2016-12-06T01:20:25.224Z,924.39
2016-12-06T01:20:39.635Z,924.4
2016-12-06T01:20:53.996Z,924.38
2016-12-06T01:21:08.414Z,924.36
2016-12-06T01:21:22.837Z,924.35
2016-12-06T01:21:37.245Z,924.38
2016-12-06T01:21:51.661Z,924.39
2016-12-06T01:22:05.979Z,924.4
2016-12-06T01:22:20.434Z,924.39
2016-12-06T01:22:34.863Z,924.41
2016-12-06T01:22:49.212Z,924.39
2016-12-06T01:23:03.619Z,924.39
2016-12-06T01:23:18.021Z,924.39
2016-12-06T01:23:32.455Z,924.37
2016-12-06T01:23:46.880Z,924.36
2016-12-06T01:24:01.270Z,924.41
2016-12-06T01:24:15.731Z,924.41
2016-12-06T01:24:30.143Z,924.37
2016-12-06T01:24:44.567Z,924.36
2016-12-06T01:24:58.945Z,924.43
2016-12-06T01:25:13.361Z,924.42
2016-12-06T01:25:27.708Z,924.39
2016-12-06T01:25:42.088Z,924.4
2016-12-06T01:25:56.501Z,924.42
2016-12-06T01:26:10.895Z,924.42
2016-12-06T01:26:25.345Z,924.4
2016-12-06T01:26:39.764Z,924.39
2016-12-06T01:26:54.162Z,924.39
2016-12-06T01:27:08.518Z,924.44
2016-12-06T01:27:22.870Z,924.39
2016-12-06T01:27:37.203Z,924.43
2016-12-06T01:27:51.614Z,924.39
2016-12-06T01:28:06.033Z,924.38
2016-12-06T01:28:20.354Z,924.37
2016-12-06T01:28:34.744Z,924.4
2016-12-06T01:28:49.143Z,924.4
2016-12-06T01:29:03.586Z,924.39
2016-12-06T01:29:17.933Z,924.39
2016-12-06T01:29:32.409Z,924.41
2016-12-06T01:29:46.864Z,924.37
2016-12-06T01:30:01.578Z,924.39
2016-12-06T01:30:15.976Z,924.35
2016-12-06T01:30:30.384Z,924.35
2016-12-06T01:30:44.763Z,924.36
2016-12-06T01:30:59.187Z,924.35
2016-12-06T01:31:13.635Z,924.36
2016-12-06T01:31:28.025Z,924.35
2016-12-06T01:31:42.407Z,924.31
2016-12-06T01:31:56.815Z,924.34
2016-12-06T01:32:11.142Z,924.37
2016-12-06T01:32:25.551Z,924.36
2016-12-06T01:32:39.940Z,924.41
2016-12-06T01:32:54.385Z,924.41
2016-12-06T01:33:08.777Z,924.39
2016-12-06T01:33:23.222Z,924.44
2016-12-06T01:33:37.649Z,924.39
2016-12-06T01:33:52.049Z,924.37
2016-12-06T01:34:06.607Z,924.39
2016-12-06T01:34:21.030Z,924.39
2016-12-06T01:34:35.440Z,924.39
2016-12-06T01:34:49.859Z,924.39
2016-12-06T01:35:04.353Z,924.38
2016-12-06T01:35:18.849Z,924.4
2016-12-06T01:35:33.271Z,924.39
2016-12-06T01:35:47.647Z,924.38
2016-12-06T01:36:02.080Z,924.39
2016-12-06T01:36:16.484Z,924.41
2016-12-06T01:36:31.091Z,924.37
2016-12-06T01:36:45.447Z,924.4
2016-12-06T01:37:00.040Z,924.38
2016-12-06T01:37:14.383Z,924.36
2016-12-06T01:37:28.820Z,924.35
2016-12-06T01:37:43.191Z,924.34
2016-12-06T01:37:57.607Z,924.34
2016-12-06T01:38:12.067Z,924.38
2016-12-06T01:38:26.484Z,924.36
2016-12-06T01:38:40.900Z,924.37
2016-12-06T01:38:55.231Z,924.35
2016-12-06T01:39:09.614Z,924.37
2016-12-06T01:39:24.088Z,924.38
2016-12-06T01:39:38.484Z,924.38
2016-12-06T01:39:52.880Z,924.36
2016-12-06T01:40:07.304Z,924.35
2016-12-06T01:40:21.740Z,924.38
2016-12-06T01:40:36.113Z,924.36
2016-12-06T01:40:50.549Z,924.36
2016-12-06T01:41:04.972Z,924.35
2016-12-06T01:41:19.391Z,924.34
2016-12-06T01:41:33.789Z,924.33
2016-12-06T01:41:48.136Z,924.32
2016-12-06T01:42:02.539Z,924.34
2016-12-06T01:42:16.951Z,924.37
2016-12-06T01:42:31.374Z,924.33
2016-12-06T01:42:45.823Z,924.29
2016-12-06T01:43:00.175Z,924.34
2016-12-06T01:43:14.530Z,924.29
2016-12-06T01:43:28.951Z,924.33
2016-12-06T01:43:43.375Z,924.31
2016-12-06T01:43:57.818Z,924.32
2016-12-06T01:44:12.186Z,924.3
2016-12-06T01:44:26.553Z,924.27
2016-12-06T01:44:40.939Z,924.3
2016-12-06T01:44:55.311Z,924.28
2016-12-06T01:45:09.943Z,924.29
2016-12-06T01:45:24.274Z,924.31
2016-12-06T01:45:38.727Z,924.27
2016-12-06T01:45:53.188Z,924.32
2016-12-06T01:46:07.603Z,924.31
2016-12-06T01:46:21.947Z,924.28
2016-12-06T01:46:36.337Z,924.29
2016-12-06T01:46:50.711Z,924.24
2016-12-06T01:47:05.122Z,924.25
2016-12-06T01:47:19.576Z,924.27
2016-12-06T01:47:33.990Z,924.25
2016-12-06T01:47:48.470Z,924.24
2016-12-06T01:48:02.866Z,924.25
2016-12-06T01:48:17.199Z,924.23
2016-12-06T01:48:31.609Z,924.22
2016-12-06T01:48:46.027Z,924.23
2016-12-06T01:49:00.466Z,924.21
2016-12-06T01:49:14.821Z,924.24
2016-12-06T01:49:29.193Z,924.25
2016-12-06T01:49:43.502Z,924.25
2016-12-06T01:49:57.891Z,924.21
2016-12-06T01:50:12.271Z,924.22
2016-12-06T01:50:26.630Z,924.2
2016-12-06T01:50:41.010Z,924.19
2016-12-06T01:50:55.391Z,924.2
2016-12-06T01:51:09.786Z,924.2
2016-12-06T01:51:24.172Z,924.18
2016-12-06T01:51:38.540Z,924.17
2016-12-06T01:51:52.942Z,924.11
2016-12-06T01:52:07.329Z,924.12
2016-12-06T01:52:21.730Z,924.15
2016-12-06T01:52:36.069Z,924.14
2016-12-06T01:52:50.565Z,924.13
2016-12-06T01:53:04.919Z,924.13
2016-12-06T01:53:19.414Z,924.11
2016-12-06T01:53:33.798Z,924.15
2016-12-06T01:53:48.268Z,924.12
2016-12-06T01:54:02.695Z,924.13
2016-12-06T01:54:17.020Z,924.11
2016-12-06T01:54:31.413Z,924.15
2016-12-06T01:54:45.844Z,924.14
2016-12-06T01:55:00.234Z,924.16
2016-12-06T01:55:14.658Z,924.14
2016-12-06T01:55:29.000Z,924.13
2016-12-06T01:55:43.400Z,924.13
2016-12-06T01:55:57.831Z,924.14
2016-12-06T01:56:12.232Z,924.13
2016-12-06T01:56:26.666Z,924.14
2016-12-06T01:56:41.054Z,924.14
2016-12-06T01:56:55.436Z,924.14
2016-12-06T01:57:09.797Z,924.13
2016-12-06T01:57:24.284Z,924.13
2016-12-06T01:57:38.709Z,924.16
2016-12-06T01:57:53.207Z,924.15
2016-12-06T01:58:07.648Z,924.11
2016-12-06T01:58:22.021Z,924.1
2016-12-06T01:58:36.392Z,924.14
2016-12-06T01:58:50.857Z,924.09
2016-12-06T01:59:05.291Z,924.14
2016-12-06T01:59:19.689Z,924.1
2016-12-06T01:59:34.083Z,924.13
2016-12-06T01:59:48.484Z,924.13
2016-12-06T02:00:02.824Z,924.12
2016-12-06T02:00:17.553Z,924.07
2016-12-06T02:00:31.932Z,924.1
2016-12-06T02:00:46.330Z,924.09
2016-12-06T02:01:00.747Z,924.1
2016-12-06T02:01:15.194Z,924.1
2016-12-06T02:01:29.524Z,924.13
2016-12-06T02:01:43.965Z,924.13
2016-12-06T02:01:58.343Z,924.1
2016-12-06T02:02:12.722Z,924.13
2016-12-06T02:02:27.160Z,924.09
2016-12-06T02:02:41.542Z,924.07
2016-12-06T02:02:55.931Z,924.12
2016-12-06T02:03:10.301Z,924.09
2016-12-06T02:03:24.655Z,924.1
2016-12-06T02:03:39.062Z,924.09
2016-12-06T02:03:53.536Z,924.1
2016-12-06T02:04:07.940Z,924.07
2016-12-06T02:04:22.382Z,924.07
2016-12-06T02:04:36.811Z,924.05
2016-12-06T02:04:51.228Z,924.1
2016-12-06T02:05:05.539Z,924.06
2016-12-06T02:05:19.984Z,924.08
2016-12-06T02:05:34.373Z,924.06
2016-12-06T02:05:48.722Z,924.06
2016-12-06T02:06:03.063Z,924.03
2016-12-06T02:06:17.407Z,924.04
2016-12-06T02:06:31.804Z,924.02
2016-12-06T02:06:46.265Z,924.05
2016-12-06T02:07:00.633Z,924.05
2016-12-06T02:07:15.060Z,924.01
2016-12-06T02:07:29.392Z,924.02
2016-12-06T02:07:43.839Z,924
2016-12-06T02:07:58.157Z,924.01
2016-12-06T02:08:12.615Z,924.02
2016-12-06T02:08:26.986Z,924.03
2016-12-06T02:08:41.469Z,924.05
2016-12-06T02:08:55.844Z,924.05
2016-12-06T02:09:10.227Z,924.06
2016-12-06T02:09:24.650Z,924.05
2016-12-06T02:09:39.001Z,924.07
2016-12-06T02:09:53.406Z,924.05
2016-12-06T02:10:07.852Z,924.07
2016-12-06T02:10:22.323Z,924.04
2016-12-06T02:10:36.694Z,924.08
2016-12-06T02:10:51.054Z,924.07
2016-12-06T02:11:05.501Z,924.1
2016-12-06T02:11:19.963Z,924.1
2016-12-06T02:11:34.343Z,924.1
2016-12-06T02:11:48.730Z,924.08
2016-12-06T02:12:03.142Z,924.12
2016-12-06T02:12:17.495Z,924.07
2016-12-06T02:12:31.810Z,924.14
2016-12-06T02:12:46.202Z,924.1
2016-12-06T02:13:00.632Z,924.09
2016-12-06T02:13:15.054Z,924.1
2016-12-06T02:13:29.471Z,924.08
2016-12-06T02:13:43.906Z,924.09
2016-12-06T02:13:58.275Z,924.06
2016-12-06T02:14:12.698Z,924.1
2016-12-06T02:14:27.086Z,924.08
2016-12-06T02:14:41.493Z,924.04
2016-12-06T02:14:55.865Z,924.03
2016-12-06T02:15:10.286Z,924.03
2016-12-06T02:15:24.861Z,924.04
2016-12-06T02:15:39.236Z,924
2016-12-06T02:15:53.614Z,924.03
2016-12-06T02:16:07.999Z,924.01
2016-12-06T02:16:22.456Z,924
2016-12-06T02:16:36.907Z,924.01
2016-12-06T02:16:51.245Z,923.99
2016-12-06T02:17:05.594Z,923.99
2016-12-06T02:17:20.063Z,923.96
2016-12-06T02:17:34.456Z,923.93
2016-12-06T02:17:48.871Z,923.97
2016-12-06T02:18:03.344Z,923.95
2016-12-06T02:18:17.721Z,923.95
2016-12-06T02:18:32.176Z,923.91
2016-12-06T02:18:46.698Z,923.94
2016-12-06T02:19:01.166Z,923.93
2016-12-06T02:19:15.482Z,923.95
2016-12-06T02:19:29.834Z,923.93
2016-12-06T02:19:44.261Z,923.93
2016-12-06T02:19:58.612Z,923.93
2016-12-06T02:20:12.962Z,923.9
2016-12-06T02:20:27.387Z,923.89
2016-12-06T02:20:41.794Z,923.9
2016-12-06T02:20:56.231Z,923.88
2016-12-06T02:21:10.667Z,923.88
2016-12-06T02:21:25.054Z,923.91
2016-12-06T02:21:39.434Z,923.88
2016-12-06T02:21:53.809Z,923.91
2016-12-06T02:22:08.400Z,923.92
2016-12-06T02:22:22.822Z,923.89
2016-12-06T02:22:37.240Z,923.88
2016-12-06T02:22:51.654Z,923.87
2016-12-06T02:23:06.086Z,923.89
2016-12-06T02:23:20.510Z,923.91
2016-12-06T02:23:34.921Z,923.92
2016-12-06T02:23:49.344Z,923.92
2016-12-06T02:24:03.788Z,923.87
2016-12-06T02:24:18.214Z,923.91
2016-12-06T02:24:32.647Z,923.93
2016-12-06T02:24:47.048Z,923.93
2016-12-06T02:25:01.462Z,923.9
2016-12-06T02:25:15.891Z,923.96
2016-12-06T02:25:30.294Z,923.96
2016-12-06T02:25:44.724Z,923.94
2016-12-06T02:25:59.183Z,923.91
2016-12-06T02:26:13.605Z,923.96
2016-12-06T02:26:28.035Z,923.96
2016-12-06T02:26:42.375Z,923.96
2016-12-06T02:26:56.796Z,923.97
2016-12-06T02:27:11.246Z,923.98
2016-12-06T02:27:25.622Z,923.96
2016-12-06T02:27:39.923Z,923.96
2016-12-06T02:27:54.255Z,923.95
2016-12-06T02:28:08.680Z,923.94
2016-12-06T02:28:23.047Z,923.95
2016-12-06T02:28:37.418Z,923.94
2016-12-06T02:28:51.838Z,923.95
2016-12-06T02:29:06.227Z,923.92
2016-12-06T02:29:20.638Z,923.96
2016-12-06T02:29:35.132Z,923.95
2016-12-06T02:29:49.568Z,924
2016-12-06T02:30:03.983Z,923.97
2016-12-06T02:30:18.367Z,924.04
2016-12-06T02:30:33.014Z,924.02
2016-12-06T02:30:47.501Z,924
2016-12-06T02:31:01.952Z,923.98
2016-12-06T02:31:16.397Z,923.96
2016-12-06T02:31:30.839Z,923.95
2016-12-06T02:31:45.173Z,923.94
2016-12-06T02:31:59.493Z,923.91
2016-12-06T02:32:13.895Z,923.92
2016-12-06T02:32:28.300Z,923.95
2016-12-06T02:32:42.684Z,923.92
2016-12-06T02:32:57.047Z,923.89
2016-12-06T02:33:11.482Z,923.91
2016-12-06T02:33:25.870Z,923.95
2016-12-06T02:33:40.358Z,923.92
2016-12-06T02:33:54.781Z,923.94
2016-12-06T02:34:09.241Z,923.92
2016-12-06T02:34:23.632Z,923.93
2016-12-06T02:34:38.062Z,923.95
2016-12-06T02:34:52.477Z,923.96
2016-12-06T02:35:06.942Z,923.93
2016-12-06T02:35:21.328Z,923.93
2016-12-06T02:35:35.675Z,923.93
2016-12-06T02:35:50.030Z,923.93
2016-12-06T02:36:04.468Z,923.97
2016-12-06T02:36:18.859Z,923.93
2016-12-06T02:36:33.258Z,923.91
2016-12-06T02:36:47.597Z,923.93
2016-12-06T02:37:02.008Z,923.95
2016-12-06T02:37:16.380Z,923.93
2016-12-06T02:37:30.702Z,923.95
2016-12-06T02:37:45.104Z,923.96
2016-12-06T02:37:59.461Z,923.93
2016-12-06T02:38:13.775Z,923.97
2016-12-06T02:38:28.101Z,924.01
2016-12-06T02:38:42.449Z,923.96
2016-12-06T02:38:56.924Z,923.98
2016-12-06T02:39:11.265Z,923.96
2016-12-06T02:39:25.588Z,923.98
2016-12-06T02:39:39.959Z,923.96
2016-12-06T02:39:54.350Z,923.92
2016-12-06T02:40:08.784Z,923.96
2016-12-06T02:40:23.195Z,923.93
2016-12-06T02:40:37.631Z,923.94
2016-12-06T02:40:52.038Z,923.93
2016-12-06T02:41:06.393Z,923.94
2016-12-06T02:41:20.753Z,923.96
2016-12-06T02:41:35.138Z,923.99
2016-12-06T02:41:49.618Z,923.96
2016-12-06T02:42:04.107Z,923.92
2016-12-06T02:42:18.466Z,923.96
2016-12-06T02:42:32.914Z,923.92
2016-12-06T02:42:47.356Z,923.92
2016-12-06T02:43:01.755Z,923.92
2016-12-06T02:43:16.132Z,923.91
2016-12-06T02:43:30.575Z,923.88
2016-12-06T02:43:45.018Z,923.91
2016-12-06T02:43:59.425Z,923.88
2016-12-06T02:44:13.803Z,923.87
2016-12-06T02:44:28.133Z,923.87
2016-12-06T02:44:42.595Z,923.87
2016-12-06T02:44:57.021Z,923.84
2016-12-06T02:45:11.417Z,923.89
2016-12-06T02:45:25.752Z,923.86
2016-12-06T02:45:40.487Z,923.85
2016-12-06T02:45:54.920Z,923.88
2016-12-06T02:46:09.288Z,923.85
2016-12-06T02:46:23.654Z,923.88
2016-12-06T02:46:38.017Z,923.87
2016-12-06T02:46:52.451Z,923.88
2016-12-06T02:47:06.836Z,923.87
2016-12-06T02:47:21.232Z,923.89
2016-12-06T02:47:35.605Z,923.82
2016-12-06T02:47:50.245Z,923.86
2016-12-06T02:48:04.646Z,923.86
2016-12-06T02:48:19.091Z,923.88
2016-12-06T02:48:33.557Z,923.87
2016-12-06T02:48:47.957Z,923.83
2016-12-06T02:49:02.375Z,923.82
2016-12-06T02:49:16.756Z,923.82
2016-12-06T02:49:31.165Z,923.84
2016-12-06T02:49:45.647Z,923.82
2016-12-06T02:50:00.070Z,923.8
2016-12-06T02:50:14.446Z,923.81
2016-12-06T02:50:28.887Z,923.79
2016-12-06T02:50:43.241Z,923.73
2016-12-06T02:50:57.558Z,923.73
2016-12-06T02:51:11.963Z,923.72
2016-12-06T02:51:26.388Z,923.74
2016-12-06T02:51:40.791Z,923.72
2016-12-06T02:51:55.196Z,923.69
2016-12-06T02:52:09.524Z,923.7
2016-12-06T02:52:23.981Z,923.71
2016-12-06T02:52:38.395Z,923.69
2016-12-06T02:52:52.836Z,923.69
2016-12-06T02:53:07.207Z,923.72
2016-12-06T02:53:21.638Z,923.71
2016-12-06T02:53:36.037Z,923.72
2016-12-06T02:53:50.432Z,923.74
2016-12-06T02:54:04.831Z,923.73
2016-12-06T02:54:19.261Z,923.72
2016-12-06T02:54:33.641Z,923.76
2016-12-06T02:54:48.120Z,923.71
2016-12-06T02:55:02.563Z,923.72
2016-12-06T02:55:16.888Z,923.69
2016-12-06T02:55:31.383Z,923.72
2016-12-06T02:55:45.767Z,923.68
2016-12-06T02:56:00.238Z,923.72
2016-12-06T02:56:14.682Z,923.7
2016-12-06T02:56:29.035Z,923.69
2016-12-06T02:56:43.447Z,923.68
2016-12-06T02:56:57.837Z,923.64
2016-12-06T02:57:12.238Z,923.68
2016-12-06T02:57:26.640Z,923.65
2016-12-06T02:57:41.099Z,923.67
2016-12-06T02:57:55.457Z,923.66
2016-12-06T02:58:09.894Z,923.64
2016-12-06T02:58:24.243Z,923.68
2016-12-06T02:58:38.654Z,923.63
2016-12-06T02:58:52.974Z,923.66
2016-12-06T02:59:07.370Z,923.63
2016-12-06T02:59:21.884Z,923.65
2016-12-06T02:59:36.331Z,923.66
2016-12-06T02:59:50.732Z,923.67
2016-12-06T03:00:05.143Z,923.68
2016-12-06T03:00:19.599Z,923.66
2016-12-06T03:00:34.099Z,923.64
2016-12-06T03:00:48.839Z,923.65